createdAt,value
2019-01-20T00:03:09.421Z,72.19
2019-01-20T00:07:15.118Z,71.82
2019-01-20T00:11:18.745Z,71.82
2019-01-20T00:15:22.411Z,69.37
2019-01-20T00:19:26.084Z,69.85
2019-01-20T00:23:29.765Z,68.68
2019-01-20T00:27:33.423Z,68.70
2019-01-20T00:31:37.110Z,70.21
2019-01-20T00:35:40.758Z,69.02
2019-01-20T00:39:44.675Z,71.22
2019-01-20T00:43:48.352Z,72.07
2019-01-20T00:47:52.012Z,74.58
2019-01-20T00:51:55.669Z,74.27
2019-01-20T00:55:59.325Z,73.66
2019-01-20T01:00:02.981Z,71.19
2019-01-20T01:04:06.650Z,71.34
2019-01-20T01:08:10.370Z,68.09
2019-01-20T01:12:17.224Z,68.76
2019-01-20T01:16:20.890Z,71.56
2019-01-20T01:20:24.560Z,70.09
2019-01-20T01:24:28.220Z,69.90
2019-01-20T01:28:31.876Z,70.19
2019-01-20T01:32:35.879Z,70.51
2019-01-20T01:36:39.533Z,70.34
2019-01-20T01:40:43.180Z,67.21
2019-01-20T01:44:46.841Z,69.18
2019-01-20T01:48:50.500Z,67.50
2019-01-20T01:52:54.163Z,70.43
2019-01-20T01:56:57.825Z,68.90
2019-01-20T02:01:01.499Z,66.34
2019-01-20T02:05:05.427Z,68.19
2019-01-20T02:09:09.122Z,67.52
2019-01-20T02:13:12.782Z,70.17
2019-01-20T02:17:16.535Z,71.51
2019-01-20T02:21:20.206Z,73.38
2019-01-20T02:25:23.855Z,74.70
2019-01-20T02:29:27.510Z,75.42
2019-01-20T02:33:31.186Z,73.76
2019-01-20T02:37:34.842Z,76.09
2019-01-20T02:41:38.487Z,76.18
2019-01-20T02:45:42.146Z,76.76
2019-01-20T02:49:45.795Z,76.15
2019-01-20T02:53:49.551Z,77.05
2019-01-20T02:57:53.209Z,77.12
2019-01-20T03:01:56.870Z,77.49
2019-01-20T03:06:00.521Z,78.60
2019-01-20T03:10:04.626Z,78.43
2019-01-20T03:14:08.279Z,79.02
2019-01-20T03:18:11.929Z,78.81
2019-01-20T03:22:15.590Z,79.33
2019-01-20T03:26:19.253Z,79.66
2019-01-20T03:30:23.415Z,79.55
2019-01-20T03:34:27.123Z,79.74
2019-01-20T03:38:30.783Z,79.54
2019-01-20T03:42:34.447Z,79.01
2019-01-20T03:46:38.099Z,79.21
2019-01-20T03:50:41.763Z,79.67
2019-01-20T03:54:45.551Z,79.74
2019-01-20T03:58:49.201Z,80.43
2019-01-20T04:03:03.684Z,79.46
2019-01-20T04:07:07.456Z,80.52
2019-01-20T04:11:11.105Z,80.64
2019-01-20T04:15:14.771Z,80.19
2019-01-20T04:19:18.568Z,79.68
2019-01-20T04:23:22.480Z,80.45
2019-01-20T04:27:26.130Z,80.21
2019-01-20T04:31:29.787Z,79.56
2019-01-20T04:35:33.449Z,80.91
2019-01-20T04:39:37.101Z,80.73
2019-01-20T04:43:40.760Z,80.71
2019-01-20T04:47:44.448Z,79.94
2019-01-20T04:51:48.097Z,80.80
2019-01-20T04:55:52.073Z,81.29
2019-01-20T04:59:55.714Z,80.93
2019-01-20T05:03:59.396Z,81.58
2019-01-20T05:08:03.052Z,81.63
2019-01-20T05:12:06.721Z,81.25
2019-01-20T05:16:10.387Z,81.45
2019-01-20T05:20:14.076Z,81.65
2019-01-20T05:24:17.737Z,81.55
2019-01-20T05:28:21.402Z,81.79
2019-01-20T05:32:25.066Z,82.31
2019-01-20T05:36:28.727Z,82.32
2019-01-20T05:40:32.378Z,82.05
2019-01-20T05:44:36.039Z,82.54
2019-01-20T05:48:39.713Z,82.12
2019-01-20T05:52:43.459Z,82.23
2019-01-20T05:56:47.108Z,82.39
2019-01-20T06:00:50.799Z,82.39
2019-01-20T06:04:54.546Z,83.05
2019-01-20T06:08:58.961Z,82.44
2019-01-20T06:13:02.652Z,83.26
2019-01-20T06:17:06.303Z,83.01
2019-01-20T06:21:09.978Z,83.02
2019-01-20T06:25:13.659Z,83.23
2019-01-20T06:29:17.299Z,83.40
2019-01-20T06:33:21.039Z,83.28
2019-01-20T06:37:24.691Z,83.53
2019-01-20T06:41:28.362Z,82.99
2019-01-20T06:45:32.364Z,83.41
2019-01-20T06:49:36.095Z,83.48
2019-01-20T06:53:40.013Z,83.60
2019-01-20T06:57:43.702Z,83.82
2019-01-20T07:01:48.125Z,83.76
2019-01-20T07:05:51.786Z,83.48
2019-01-20T07:09:55.544Z,83.79
2019-01-20T07:13:59.199Z,83.99
2019-01-20T07:18:02.888Z,84.00
2019-01-20T07:22:06.605Z,84.07
2019-01-20T07:26:10.278Z,84.06
2019-01-20T07:30:19.443Z,83.90
2019-01-20T07:34:23.178Z,84.15
2019-01-20T07:38:26.860Z,84.04
2019-01-20T07:42:30.521Z,84.12
2019-01-20T07:46:34.198Z,83.98
2019-01-20T07:50:37.985Z,84.22
2019-01-20T07:54:41.652Z,84.27
2019-01-20T07:58:45.329Z,84.49
2019-01-20T08:02:48.983Z,84.65
2019-01-20T08:06:52.650Z,84.74
2019-01-20T08:10:56.377Z,84.62
2019-01-20T08:32:44.707Z,73.00
2019-01-20T08:36:49.752Z,79.73
2019-01-20T08:40:54.629Z,81.99
2019-01-20T08:44:59.559Z,82.24
2019-01-20T08:49:05.138Z,82.89
2019-01-20T08:53:10.384Z,83.08
2019-01-20T08:57:15.276Z,83.12
2019-01-20T09:01:20.173Z,82.66
2019-01-20T09:05:25.093Z,81.74
2019-01-20T09:09:30.112Z,82.07
2019-01-20T09:13:39.743Z,81.02
2019-01-20T09:17:42.217Z,79.68
2019-01-20T09:21:47.242Z,79.69
2019-01-20T09:25:52.208Z,78.81
2019-01-20T09:29:57.497Z,75.43
2019-01-20T09:34:02.503Z,74.33
2019-01-20T09:38:07.451Z,72.50
2019-01-20T09:42:12.360Z,73.35
2019-01-20T09:46:17.269Z,70.54
2019-01-20T09:50:22.255Z,68.62
2019-01-20T09:54:27.560Z,70.03
2019-01-20T09:58:32.806Z,70.85
2019-01-20T10:02:37.800Z,70.46
2019-01-20T10:06:42.747Z,67.61
2019-01-20T10:10:47.952Z,67.02
2019-01-20T10:14:52.930Z,66.83
2019-01-20T10:18:57.955Z,66.15
2019-01-20T10:23:02.945Z,66.37
2019-01-20T10:27:07.855Z,65.10
2019-01-20T10:31:13.373Z,66.06
2019-01-20T10:35:20.200Z,64.36
2019-01-20T10:39:25.609Z,62.15
2019-01-20T10:43:30.604Z,61.23
2019-01-20T10:47:35.563Z,64.93
2019-01-20T10:52:05.279Z,64.67
2019-01-20T10:56:10.301Z,62.22
2019-01-20T11:00:23.117Z,60.75
2019-01-20T11:04:28.170Z,63.39
2019-01-20T11:08:33.203Z,59.51
2019-01-20T11:12:38.159Z,62.33
2019-01-20T11:16:43.073Z,61.81
2019-01-20T11:20:47.964Z,62.47
2019-01-20T11:24:52.871Z,62.15
2019-01-20T11:28:57.765Z,60.76
2019-01-20T11:33:02.699Z,59.82
2019-01-20T11:37:07.927Z,56.27
2019-01-20T11:41:12.867Z,59.09
2019-01-20T11:45:24.205Z,57.77
2019-01-20T11:49:29.468Z,55.46
2019-01-20T11:53:34.436Z,57.22
2019-01-20T11:57:39.360Z,55.20
2019-01-20T12:01:44.315Z,54.87
2019-01-20T12:05:49.490Z,54.34
2019-01-20T12:09:54.388Z,53.78
2019-01-20T12:13:59.294Z,54.12
2019-01-20T12:18:04.767Z,55.26
2019-01-20T12:22:09.910Z,54.86
2019-01-20T12:26:15.185Z,55.53
2019-01-20T12:30:23.375Z,53.58
2019-01-20T12:34:28.403Z,55.41
2019-01-20T12:38:33.385Z,54.56
2019-01-20T12:42:38.435Z,56.92
2019-01-20T12:46:43.653Z,54.08
2019-01-20T12:50:48.574Z,52.80
2019-01-20T12:54:53.479Z,49.66
2019-01-20T12:58:58.382Z,49.99
2019-01-20T13:03:03.337Z,48.80
2019-01-20T13:07:08.521Z,49.18
2019-01-20T13:11:13.437Z,43.34
2019-01-20T13:15:20.339Z,46.31
2019-01-20T13:19:25.238Z,43.35
2019-01-20T13:23:30.298Z,46.64
2019-01-20T13:27:35.246Z,45.18
2019-01-20T13:31:47.805Z,45.34
2019-01-20T13:35:52.748Z,43.90
2019-01-20T13:39:57.632Z,46.01
2019-01-20T13:44:02.640Z,46.76
2019-01-20T13:48:07.602Z,49.34
2019-01-20T13:52:12.732Z,46.28
2019-01-20T13:56:17.619Z,46.58
2019-01-20T14:00:23.338Z,46.98
2019-01-20T14:04:28.256Z,47.77
2019-01-20T14:08:33.178Z,47.87
2019-01-20T14:12:38.145Z,49.63
2019-01-20T14:16:43.071Z,48.13
2019-01-20T14:20:48.083Z,49.45
2019-01-20T14:24:53.327Z,49.92
2019-01-20T14:28:58.684Z,51.32
2019-01-20T14:33:03.573Z,49.39
2019-01-20T14:37:08.763Z,49.59
2019-01-20T14:41:13.753Z,52.87
2019-01-20T14:45:18.937Z,52.75
2019-01-20T14:49:23.926Z,52.88
2019-01-20T14:53:28.828Z,53.42
2019-01-20T14:57:33.840Z,54.21
2019-01-20T15:01:38.869Z,53.91
2019-01-20T15:05:43.831Z,54.31
2019-01-20T15:09:48.794Z,54.45
2019-01-20T15:13:53.812Z,55.37
2019-01-20T15:17:59.056Z,56.38
2019-01-20T15:22:03.975Z,56.23
2019-01-20T15:26:08.989Z,56.55
2019-01-20T15:30:28.869Z,56.64
2019-01-20T15:34:33.751Z,57.17
2019-01-20T15:38:38.657Z,57.73
2019-01-20T15:42:43.899Z,58.65
2019-01-20T15:46:48.796Z,59.49
2019-01-20T15:50:53.715Z,60.49
2019-01-20T15:54:58.661Z,60.64
2019-01-20T15:59:03.669Z,60.52
2019-01-20T16:03:08.565Z,62.08
2019-01-20T16:07:16.598Z,61.74
2019-01-20T16:11:21.538Z,62.64
2019-01-20T16:15:40.924Z,63.44
2019-01-20T16:19:46.154Z,64.03
2019-01-20T16:23:51.117Z,65.96
2019-01-20T16:27:56.032Z,65.57
2019-01-20T16:32:01.067Z,67.39
2019-01-20T16:36:05.974Z,68.11
2019-01-20T16:40:14.835Z,66.71
2019-01-20T16:44:20.089Z,67.62
2019-01-20T16:48:25.022Z,67.42
2019-01-20T16:52:29.940Z,68.12
2019-01-20T16:56:34.820Z,66.67
2019-01-20T17:00:45.388Z,66.34
2019-01-20T17:04:50.363Z,66.70
2019-01-20T17:08:55.546Z,66.86
2019-01-20T17:13:00.811Z,67.59
2019-01-20T17:17:05.750Z,66.42
2019-01-20T17:21:10.729Z,66.41
2019-01-20T17:25:15.826Z,65.36
2019-01-20T17:29:20.751Z,64.73
2019-01-20T17:33:25.666Z,64.49
2019-01-20T17:37:30.632Z,63.70
2019-01-20T17:41:35.563Z,63.74
2019-01-20T17:45:48.489Z,64.45
2019-01-20T17:49:51.590Z,64.59
2019-01-20T17:53:56.497Z,64.81
2019-01-20T17:58:01.712Z,65.56
2019-01-20T18:02:06.682Z,65.81
2019-01-20T18:06:11.678Z,65.89
2019-01-20T18:10:16.743Z,66.47
2019-01-20T18:14:21.666Z,67.79
2019-01-20T18:18:26.860Z,68.23
2019-01-20T18:22:31.828Z,69.82
2019-01-20T18:26:37.156Z,68.97
2019-01-20T18:30:42.449Z,69.47
2019-01-20T18:34:47.477Z,69.75
2019-01-20T18:38:52.379Z,69.85
2019-01-20T18:42:57.862Z,70.18
2019-01-20T18:47:03.004Z,69.62
2019-01-20T18:51:07.947Z,70.92
2019-01-20T18:55:13.986Z,69.76
2019-01-20T18:59:19.462Z,70.71
2019-01-20T19:03:24.504Z,71.17
2019-01-20T19:07:29.382Z,71.73
2019-01-20T19:11:34.316Z,71.52
2019-01-20T19:15:39.274Z,72.01
2019-01-20T19:19:44.216Z,71.44
2019-01-20T19:23:49.233Z,72.64
2019-01-20T19:27:54.338Z,72.67
2019-01-20T19:31:59.376Z,72.76
2019-01-20T19:36:04.497Z,72.51
2019-01-20T19:40:10.735Z,71.66
2019-01-20T19:44:15.731Z,71.53
2019-01-20T19:48:20.790Z,72.54
2019-01-20T19:52:25.815Z,73.17
2019-01-20T19:56:31.056Z,72.83
2019-01-20T20:00:36.115Z,73.98
2019-01-20T20:04:41.143Z,73.60
2019-01-20T20:08:46.150Z,73.92
2019-01-20T20:12:51.132Z,74.37
2019-01-20T20:16:56.143Z,73.83
2019-01-20T20:21:01.087Z,74.06
2019-01-20T20:25:07.389Z,74.07
2019-01-20T20:29:12.333Z,74.33
2019-01-20T20:33:17.262Z,73.47
2019-01-20T20:37:22.216Z,75.02
2019-01-20T20:41:27.139Z,74.47
2019-01-20T20:45:32.156Z,73.75
2019-01-20T20:49:37.224Z,74.27
2019-01-20T20:53:42.141Z,73.64
2019-01-20T20:57:47.179Z,72.88
2019-01-20T21:01:52.506Z,72.56
2019-01-20T21:05:57.620Z,72.83
2019-01-20T21:10:02.559Z,72.39
2019-01-20T21:14:07.640Z,73.40
2019-01-20T21:18:12.911Z,72.75
2019-01-20T21:22:18.113Z,74.07
2019-01-20T21:26:23.143Z,73.75
2019-01-20T21:30:28.262Z,72.42
2019-01-20T21:34:33.168Z,72.38
2019-01-20T21:38:38.397Z,73.58
2019-01-20T21:42:43.311Z,75.15
2019-01-20T21:46:48.231Z,75.32
2019-01-20T21:50:53.165Z,75.68
2019-01-20T21:54:58.073Z,76.19
2019-01-20T21:59:02.990Z,76.28
2019-01-20T22:03:08.034Z,77.00
2019-01-20T22:07:12.977Z,77.43
2019-01-20T22:11:17.911Z,76.82
2019-01-20T22:15:22.846Z,78.41
2019-01-20T22:19:27.749Z,77.28
2019-01-20T22:23:32.708Z,77.74
2019-01-20T22:27:37.630Z,76.90
2019-01-20T22:31:42.876Z,77.37
2019-01-20T22:35:47.803Z,77.15
2019-01-20T22:39:52.731Z,78.58
2019-01-20T22:43:58.293Z,77.72
2019-01-20T22:48:03.292Z,77.44
2019-01-20T22:52:08.203Z,77.86
2019-01-20T22:56:13.139Z,76.85
2019-01-20T23:00:51.881Z,78.04
2019-01-20T23:04:56.920Z,78.27
2019-01-20T23:09:06.480Z,78.09
2019-01-20T23:13:08.812Z,79.20
2019-01-20T23:17:13.753Z,79.43
2019-01-20T23:21:18.730Z,79.95
2019-01-20T23:25:23.649Z,80.23
2019-01-20T23:29:28.554Z,80.41
2019-01-20T23:33:33.457Z,80.04
2019-01-20T23:37:38.390Z,80.03
2019-01-20T23:41:43.394Z,80.58
2019-01-20T23:45:48.390Z,81.08
2019-01-20T23:49:53.315Z,80.35
2019-01-20T23:53:58.546Z,81.18
2019-01-20T23:58:03.552Z,80.95
